Time;durP1;ratioP1;P1;durP2;ratioP2;P2;SDS_P1;SDS_P2;PMS_P1;PMS_P2;Temp;Humidity;BMP_temperature;BMP_pressure;BME280_temperature;BME280_humidity;BME280_pressure;Samples;Min_cycle;Max_cycle;Signal;HPM_P1;HPM_P2
2023/07/12 00:00:32;;;;;;;24.25;21.85;;;;;;;22.24;100.00;-18349.25;5072229;28;20224;-56
2023/07/12 00:02:59;;;;;;;24.67;22.13;;;;;;;22.26;100.00;-18349.75;5072191;28;20204;-56
2023/07/12 00:05:28;;;;;;;22.98;20.83;;;;;;;22.18;100.00;-18347.84;5072133;28;20188;-57
2023/07/12 00:07:57;;;;;;;22.10;19.95;;;;;;;22.31;100.00;-18350.94;5072299;28;20184;-55
2023/07/12 00:10:26;;;;;;;22.88;20.73;;;;;;;22.26;100.00;-18349.75;5072017;28;20191;-56
2023/07/12 00:12:54;;;;;;;23.92;21.35;;;;;;;21.93;100.00;-18341.91;5071633;28;20276;-58
2023/07/12 00:15:25;;;;;;;26.08;23.83;;;;;;;22.07;100.00;-18345.22;5072032;28;20659;-56
2023/07/12 00:17:53;;;;;;;25.27;22.90;;;;;;;22.07;100.00;-18345.22;5072072;28;20210;-57
2023/07/12 00:20:28;;;;;;;26.45;23.73;;;;;;;22.00;100.00;-18343.56;5072261;28;20559;-56
2023/07/12 00:22:57;;;;;;;26.77;24.25;;;;;;;21.96;100.00;-18342.59;5072035;28;20204;-56
2023/07/12 00:25:26;;;;;;;26.48;24.25;;;;;;;22.08;100.00;-18345.47;5072227;28;20261;-57
2023/07/12 00:27:53;;;;;;;27.25;23.30;;;;;;;22.08;100.00;-18345.47;5072125;28;20524;-57
2023/07/12 00:30:22;;;;;;;25.63;23.38;;;;;;;22.07;100.00;-18345.22;5071756;28;20181;-56
2023/07/12 00:32:51;;;;;;;26.38;23.38;;;;;;;21.83;100.00;-18339.50;5071621;28;20181;-55
2023/07/12 00:35:21;;;;;;;25.38;23.08;;;;;;;21.99;100.00;-18343.31;5071814;28;20184;-55
2023/07/12 00:37:49;;;;;;;28.25;24.27;;;;;;;21.97;100.00;-18342.72;5071859;28;20247;-56
2023/07/12 00:40:32;;;;;;;31.65;25.17;;;;;;;21.97;100.00;-18342.72;5071598;28;20185;-57
2023/07/12 00:43:06;;;;;;;27.88;24.52;;;;;;;21.99;100.00;-18343.31;5071458;28;20226;-57
2023/07/12 00:45:34;;;;;;;30.50;23.35;;;;;;;21.85;100.00;-18340.00;5071492;28;20243;-57
2023/07/12 00:48:00;;;;;;;37.88;24.15;;;;;;;21.83;100.00;-18339.50;5071833;28;20646;-56
2023/07/12 00:50:28;;;;;;;27.55;22.42;;;;;;;21.74;100.00;-18337.50;5071478;28;20544;-57
2023/07/12 00:52:55;;;;;;;24.30;22.08;;;;;;;21.68;100.00;-18335.94;5071688;28;20177;-56
2023/07/12 00:55:57;;;;;;;23.65;21.42;;;;;;;21.76;100.00;-18337.97;5071326;28;20185;-55
2023/07/12 00:58:26;;;;;;;23.02;20.95;;;;;;;21.81;100.00;-18339.03;5071388;28;20653;-56
2023/07/12 01:00:53;;;;;;;25.77;21.92;;;;;;;21.86;100.00;-18340.22;5071395;28;20189;-57
2023/07/12 01:03:26;;;;;;;33.65;22.48;;;;;;;21.90;100.00;-18341.19;5071293;28;20205;-55
2023/07/12 01:05:53;;;;;;;46.75;24.40;;;;;;;21.93;100.00;-18341.78;5071294;28;20188;-55
2023/07/12 01:08:22;;;;;;;22.90;21.00;;;;;;;21.84;100.00;-18339.75;5071216;28;20192;-56
2023/07/12 01:10:49;;;;;;;23.77;21.38;;;;;;;21.72;100.00;-18336.91;5071513;28;20635;-57
2023/07/12 01:13:22;;;;;;;25.27;22.77;;;;;;;21.48;100.00;-18331.19;5071368;28;20192;-56
2023/07/12 01:15:49;;;;;;;23.00;21.15;;;;;;;21.41;100.00;-18329.75;5071379;28;20176;-57
2023/07/12 01:18:16;;;;;;;24.60;22.20;;;;;;;21.50;100.00;-18331.66;5071496;28;20195;-56
2023/07/12 01:20:44;;;;;;;25.08;23.00;;;;;;;21.51;100.00;-18332.03;5071464;28;20578;-57
2023/07/12 01:23:13;;;;;;;25.70;23.10;;;;;;;21.44;100.00;-18330.34;5071302;28;20698;-57
2023/07/12 01:25:43;;;;;;;24.67;22.27;;;;;;;21.50;100.00;-18331.66;5073653;28;20189;-56
2023/07/12 01:28:10;;;;;;;25.13;22.73;;;;;;;21.45;100.00;-18330.47;5075147;28;20222;-56
2023/07/12 01:30:38;;;;;;;25.15;21.92;;;;;;;21.24;100.00;-18325.59;5075127;28;20176;-56
2023/07/12 01:33:08;;;;;;;25.25;22.83;;;;;;;21.31;100.00;-18327.25;5075391;28;20188;-57
2023/07/12 01:35:36;;;;;;;25.02;22.52;;;;;;;21.37;100.00;-18328.81;5074949;28;20185;-56
2023/07/12 01:38:02;;;;;;;25.38;23.17;;;;;;;21.10;100.00;-18322.38;5075221;28;20184;-56
2023/07/12 01:40:31;;;;;;;25.73;23.15;;;;;;;21.15;100.00;-18323.56;5075249;28;20196;-57
2023/07/12 01:42:59;;;;;;;36.63;23.98;;;;;;;21.29;100.00;-18326.91;5075038;28;20215;-57
2023/07/12 01:45:26;;;;;;;25.85;23.08;;;;;;;21.23;100.00;-18325.34;5074827;28;20551;-56
2023/07/12 01:47:52;;;;;;;24.35;22.15;;;;;;;21.43;100.00;-18330.22;5075085;28;20185;-56
2023/07/12 01:50:19;;;;;;;26.55;22.65;;;;;;;21.43;100.00;-18330.22;5074862;28;20173;-56
2023/07/12 01:52:46;;;;;;;24.75;22.38;;;;;;;21.46;100.00;-18330.84;5075012;28;20192;-56
2023/07/12 01:55:13;;;;;;;28.27;22.98;;;;;;;21.40;100.00;-18329.41;5074641;28;20192;-57
2023/07/12 01:57:41;;;;;;;26.38;22.98;;;;;;;21.41;100.00;-18329.75;5074940;28;20558;-57
2023/07/12 02:00:09;;;;;;;25.33;22.73;;;;;;;21.27;100.00;-18326.44;5074657;28;20184;-56
2023/07/12 02:02:36;;;;;;;24.85;21.60;;;;;;;21.56;100.00;-18333.09;5074418;28;20208;-56
2023/07/12 02:05:03;;;;;;;26.85;23.50;;;;;;;21.35;100.00;-18328.31;5074448;28;20189;-57
2023/07/12 02:07:30;;;;;;;31.17;22.13;;;;;;;21.29;100.00;-18326.91;5073171;28;20192;-56
2023/07/12 02:10:12;;;;;;;24.30;21.77;;;;;;;21.42;100.00;-18329.88;5073103;28;20185;-57
2023/07/12 02:12:41;;;;;;;24.50;20.75;;;;;;;21.37;100.00;-18328.81;5074562;28;20643;-59
2023/07/12 02:15:09;;;;;;;26.30;21.75;;;;;;;21.52;100.00;-18332.13;5074555;28;20565;-56
2023/07/12 02:17:35;;;;;;;35.15;21.58;;;;;;;21.47;100.00;-18331.06;5074461;28;20188;-57
2023/07/12 02:20:03;;;;;;;23.38;20.95;;;;;;;21.51;100.00;-18331.91;5074229;28;20215;-57
2023/07/12 02:22:31;;;;;;;22.90;20.63;;;;;;;21.46;100.00;-18330.84;5074112;28;20250;-56
2023/07/12 02:24:58;;;;;;;30.40;21.33;;;;;;;21.42;100.00;-18330.00;5074099;28;20192;-57
2023/07/12 02:27:26;;;;;;;31.45;22.55;;;;;;;21.54;100.00;-18332.63;5074271;28;20685;-57
2023/07/12 02:29:54;;;;;;;29.10;23.85;;;;;;;21.52;100.00;-18332.13;5073976;28;20188;-56
2023/07/12 02:32:22;;;;;;;24.10;21.83;;;;;;;21.55;100.00;-18332.97;5073975;28;20185;-56
2023/07/12 02:34:50;;;;;;;30.13;23.13;;;;;;;21.61;100.00;-18334.41;5073877;28;20185;-56
2023/07/12 02:37:17;;;;;;;31.63;22.60;;;;;;;21.41;100.00;-18329.63;5073149;28;20200;-57
2023/07/12 02:39:44;;;;;;;28.38;21.85;;;;;;;21.52;100.00;-18332.13;5074143;28;20639;-56
2023/07/12 02:42:11;;;;;;;42.08;23.38;;;;;;;21.51;100.00;-18331.91;5074004;28;20357;-58
2023/07/12 02:44:39;;;;;;;36.25;22.65;;;;;;;21.45;100.00;-18330.47;5073525;28;20259;-55
2023/07/12 02:47:11;;;;;;;24.00;21.67;;;;;;;21.35;100.00;-18328.31;5073967;28;20189;-56
2023/07/12 02:49:39;;;;;;;29.55;23.27;;;;;;;21.27;100.00;-18326.44;5073676;28;20185;-56
2023/07/12 02:52:07;;;;;;;26.52;22.10;;;;;;;21.21;100.00;-18324.88;5073916;28;20185;-57
2023/07/12 02:54:35;;;;;;;40.40;24.13;;;;;;;21.23;100.00;-18325.47;5073804;28;20627;-57
2023/07/12 02:57:03;;;;;;;35.35;23.30;;;;;;;21.28;100.00;-18326.66;5073381;28;20658;-57
2023/07/12 02:59:30;;;;;;;30.63;23.17;;;;;;;21.37;100.00;-18328.81;5073912;28;20655;-58
2023/07/12 03:01:57;;;;;;;25.17;22.63;;;;;;;21.26;100.00;-18326.19;5073698;28;20579;-57
2023/07/12 03:04:26;;;;;;;25.70;22.73;;;;;;;21.46;100.00;-18330.84;5073169;28;20216;-56
2023/07/12 03:06:52;;;;;;;43.63;25.40;;;;;;;21.46;100.00;-18330.84;5073542;28;20189;-57
2023/07/12 03:09:19;;;;;;;42.72;24.45;;;;;;;21.50;100.00;-18331.66;5073278;28;20196;-56
2023/07/12 03:11:47;;;;;;;32.45;22.98;;;;;;;21.51;100.00;-18331.91;5073062;28;20627;-58
2023/07/12 03:14:16;;;;;;;30.65;24.35;;;;;;;21.52;100.00;-18332.25;5073170;28;20188;-55
2023/07/12 03:16:43;;;;;;;20.75;18.52;;;;;;;21.47;100.00;-18331.06;5073309;28;20617;-56
2023/07/12 03:19:10;;;;;;;16.90;15.40;;;;;;;21.56;100.00;-18333.22;5073559;28;20559;-57
2023/07/12 03:21:39;;;;;;;15.40;14.23;;;;;;;21.97;100.00;-18342.84;5073365;28;20189;-57
2023/07/12 03:24:07;;;;;;;13.15;11.95;;;;;;;22.42;100.00;-15435.84;5072839;28;20205;-56
2023/07/12 03:26:34;;;;;;;11.52;11.02;;;;;;;22.74;100.00;-6349.84;5072821;28;20563;-56
2023/07/12 03:29:01;;;;;;;13.10;12.20;;;;;;;23.29;100.00;-1466.84;5073223;28;20189;-56
2023/07/12 03:31:29;;;;;;;12.80;11.88;;;;;;;23.74;100.00;9643.38;5072845;28;20628;-57
2023/07/12 03:33:57;;;;;;;15.65;14.20;;;;;;;23.73;100.00;14883.69;5071802;28;20185;-56
2023/07/12 03:36:25;;;;;;;11.70;10.88;;;;;;;23.56;100.00;21111.06;5072693;28;20194;-56
2023/07/12 03:38:53;;;;;;;12.35;11.30;;;;;;;23.46;100.00;22420.25;5072644;28;20242;-56
2023/07/12 03:41:21;;;;;;;11.50;10.32;;;;;;;23.36;100.00;19790.34;5072912;28;20658;-56
2023/07/12 03:43:49;;;;;;;16.13;11.10;;;;;;;23.23;100.00;26024.06;5072778;28;20227;-58
2023/07/12 03:46:16;;;;;;;11.98;11.05;;;;;;;23.19;100.00;20112.34;5072464;28;20237;-57
2023/07/12 03:48:43;;;;;;;11.25;10.52;;;;;;;23.33;100.00;25699.91;5072385;28;20188;-59
2023/07/12 03:51:11;;;;;;;12.07;10.88;;;;;;;23.36;100.00;26687.25;5072858;28;20646;-57
2023/07/12 03:53:39;;;;;;;12.40;11.13;;;;;;;23.47;100.00;30970.06;5072769;28;20594;-56
2023/07/12 03:56:08;;;;;;;11.27;10.23;;;;;;;23.37;100.00;41845.88;5072282;28;20188;-56
2023/07/12 03:58:38;;;;;;;9.95;9.55;;;;;;;23.14;100.00;41829.34;5072600;28;20191;-56
2023/07/12 04:01:08;;;;;;;9.63;9.02;;;;;;;23.26;100.00;47455.56;5072369;28;20227;-56
2023/07/12 04:03:35;;;;;;;10.60;9.45;;;;;;;23.45;100.00;50450.28;5072216;28;20240;-56
2023/07/12 04:06:03;;;;;;;10.02;9.45;;;;;;;23.40;100.00;65046.69;5072455;28;20195;-57
2023/07/12 04:08:30;;;;;;;10.00;8.98;;;;;;;23.86;100.00;77767.75;5072503;28;20203;-58
2023/07/12 04:10:58;;;;;;;12.50;9.98;;;;;;;24.22;100.00;58815.91;5071935;28;20185;-57
2023/07/12 04:13:26;;;;;;;10.00;9.10;;;;;;;24.46;100.00;58840.66;5071966;28;20192;-58
2023/07/12 04:15:55;;;;;;;10.05;9.35;;;;;;;24.66;100.00;79209.59;5071799;28;20204;-56
2023/07/12 04:18:23;;;;;;;42.00;12.90;;;;;;;24.72;100.00;54212.59;5072239;28;20536;-57
2023/07/12 04:20:50;;;;;;;46.50;16.15;;;;;;;25.04;100.00;41967.06;5070937;28;20223;-56
2023/07/12 04:23:17;;;;;;;38.25;15.27;;;;;;;25.15;100.00;32383.75;5071753;28;20245;-57
2023/07/12 04:25:43;;;;;;;44.20;16.45;;;;;;;25.30;100.00;44305.66;5072038;28;20783;-57
2023/07/12 04:28:11;;;;;;;37.33;15.88;;;;;;;25.33;100.00;50280.88;5071753;28;20192;-57
2023/07/12 04:30:39;;;;;;;27.80;13.85;;;;;;;25.46;100.00;64273.59;5071715;28;20196;-57
2023/07/12 04:33:06;;;;;;;24.17;13.98;;;;;;;25.62;100.00;91086.47;5071940;28;20531;-57
2023/07/12 04:35:38;;;;;;;32.05;15.55;;;;;;;25.84;100.00;87086.78;5071947;28;20189;-57
2023/07/12 04:38:05;;;;;;;32.55;15.23;;;;;;;26.03;100.00;79727.81;5071783;28;20211;-57
2023/07/12 04:40:32;;;;;;;17.08;12.15;;;;;;;25.71;100.00;152506.56;5071515;28;20189;-56
2023/07/12 04:42:59;;;;;;;11.05;9.55;;;;;;;25.66;100.00;152493.78;5071495;28;20224;-57
2023/07/12 04:45:26;;;;;;;10.98;10.00;;;;;;;25.42;100.00;152433.63;5071536;28;20228;-57
2023/07/12 04:47:54;;;;;;;18.13;10.48;;;;;;;25.52;100.00;152457.94;5071453;28;20191;-56
2023/07/12 04:50:21;;;;;;;17.63;9.27;;;;;;;25.50;100.00;152451.56;5071453;28;20196;-57
2023/07/12 04:52:48;;;;;;;8.95;8.07;;;;;;;25.45;100.00;152441.34;5071619;28;20619;-57
2023/07/12 04:55:23;;;;;;;8.43;8.02;;;;;;;25.56;100.00;152468.19;5071375;28;20181;-56
2023/07/12 04:57:50;;;;;;;8.77;7.97;;;;;;;25.71;100.00;152506.56;5071615;28;20196;-57
2023/07/12 05:00:18;;;;;;;8.07;7.70;;;;;;;25.86;100.00;152544.88;5070818;28;20184;-58
2023/07/12 05:02:46;;;;;;;14.40;9.63;;;;;;;26.10;100.00;152603.66;5071674;28;20617;-62
2023/07/12 05:05:14;;;;;;;18.67;9.70;;;;;;;26.29;100.00;152652.31;5072142;28;20205;-63
2023/07/12 05:07:42;;;;;;;26.77;10.75;;;;;;;26.77;100.00;152775.09;5071386;28;20201;-62
2023/07/12 05:10:10;;;;;;;33.95;10.93;;;;;;;27.03;100.00;152839.09;5072111;28;20283;-63
2023/07/12 05:12:39;;;;;;;12.63;10.18;;;;;;;27.35;100.00;152920.94;5072257;28;20191;-65
2023/07/12 05:15:07;;;;;;;10.63;8.95;;;;;;;27.55;100.00;152972.16;5072552;28;20189;-64
2023/07/12 05:17:34;;;;;;;9.50;8.95;;;;;;;27.72;100.00;153014.38;5072760;28;20181;-65
2023/07/12 05:20:05;;;;;;;10.38;9.60;;;;;;;27.85;100.00;153047.66;5073531;28;20207;-64
2023/07/12 05:22:33;;;;;;;25.52;10.52;;;;;;;28.18;100.00;153129.66;5072501;28;20540;-65
2023/07/12 05:25:00;;;;;;;21.02;10.52;;;;;;;28.30;100.00;153161.66;5072058;28;20547;-63
2023/07/12 05:27:27;;;;;;;46.40;21.38;;;;;;;28.28;100.00;153155.22;5071363;28;20185;-62
2023/07/12 05:29:54;;;;;;;14.02;8.10;;;;;;;28.32;100.00;153166.75;5072264;28;20274;-65
2023/07/12 05:32:21;;;;;;;10.98;8.40;;;;;;;28.34;100.00;153171.88;5072496;28;20536;-56
2023/07/12 05:34:48;;;;;;;8.10;7.70;;;;;;;28.38;100.00;153182.13;5071129;28;20187;-57
2023/07/12 05:37:16;;;;;;;13.07;8.98;;;;;;;28.62;100.00;153242.28;5071221;28;20553;-57
2023/07/12 05:39:44;;;;;;;10.60;8.35;;;;;;;28.40;100.00;153187.22;5070786;28;20192;-57
2023/07/12 05:42:12;;;;;;;13.90;7.63;;;;;;;28.77;100.00;153279.47;5070959;28;20181;-58
2023/07/12 05:44:39;;;;;;;7.57;7.18;;;;;;;28.83;100.00;153294.81;5069690;28;20589;-59
2023/07/12 05:47:06;;;;;;;54.70;13.10;;;;;;;28.95;100.00;153325.53;5070811;28;20199;-58
2023/07/12 05:49:34;;;;;;;22.33;9.05;;;;;;;29.01;100.00;153342.22;5071031;28;20193;-57
2023/07/12 05:52:01;;;;;;;11.10;7.70;;;;;;;28.96;100.00;153328.13;5071132;28;20692;-57
2023/07/12 05:54:28;;;;;;;24.92;9.65;;;;;;;28.85;100.00;153299.97;5070966;28;20193;-56
2023/07/12 05:56:57;;;;;;;13.02;7.78;;;;;;;29.05;100.00;153352.47;5071084;28;20635;-57
2023/07/12 05:59:24;;;;;;;15.18;7.60;;;;;;;29.41;100.00;153442.13;5071201;28;20611;-57
2023/07/12 06:01:51;;;;;;;8.43;7.35;;;;;;;29.78;100.00;153536.97;5070514;28;20196;-57
2023/07/12 06:04:18;;;;;;;10.70;7.50;;;;;;;30.09;100.00;153615.16;5070452;28;20216;-58
2023/07/12 06:06:44;;;;;;;7.13;6.43;;;;;;;30.24;100.00;153652.34;5071062;28;20578;-57
2023/07/12 06:09:12;;;;;;;15.20;8.45;;;;;;;30.32;100.00;153674.13;5071015;28;20177;-57
2023/07/12 06:11:39;;;;;;;9.23;8.38;;;;;;;30.52;100.00;153722.88;5072759;28;20613;-56
2023/07/12 06:14:07;;;;;;;10.63;8.15;;;;;;;30.59;100.00;153742.13;5073051;28;20264;-56
2023/07/12 06:16:35;;;;;;;17.48;8.05;;;;;;;30.33;100.00;153676.72;5074371;28;20189;-57
2023/07/12 06:19:03;;;;;;;8.20;7.57;;;;;;;30.58;100.00;153739.56;5074094;28;20189;-57
2023/07/12 06:21:29;;;;;;;14.73;7.93;;;;;;;30.81;100.00;153797.22;5073697;28;20189;-57
2023/07/12 06:23:59;;;;;;;7.32;6.88;;;;;;;31.00;100.00;153846.03;5075695;28;20215;-57
2023/07/12 06:26:28;;;;;;;8.93;8.13;;;;;;;31.45;100.00;153958.84;5072997;28;20653;-58
2023/07/12 06:28:55;;;;;;;7.20;6.60;;;;;;;31.52;100.00;153976.81;5074315;28;20713;-61
2023/07/12 06:31:23;;;;;;;12.93;7.43;;;;;;;32.03;100.00;154107.72;5073938;28;20185;-57
2023/07/12 06:33:50;;;;;;;6.40;6.20;;;;;;;32.14;100.00;154135.97;5073828;28;20189;-57
2023/07/12 06:36:17;;;;;;;7.82;7.28;;;;;;;32.05;100.00;154112.84;5073811;28;20185;-57
2023/07/12 06:38:45;;;;;;;8.55;6.65;;;;;;;32.18;100.00;154146.25;5073992;28;20178;-58
2023/07/12 06:41:12;;;;;;;18.15;8.43;;;;;;;31.95;100.00;154085.91;5074126;28;20180;-58
2023/07/12 06:43:39;;;;;;;13.07;7.55;;;;;;;31.32;100.00;153926.78;5073368;28;20185;-57
2023/07/12 06:46:06;;;;;;;7.90;7.28;;;;;;;30.99;100.00;153843.38;5073734;28;20248;-56
2023/07/12 06:48:34;;;;;;;7.78;7.20;;;;;;;31.20;100.00;153897.28;5073743;28;20220;-55
2023/07/12 06:51:01;;;;;;;14.45;7.70;;;;;;;31.59;100.00;153996.09;5073662;28;20635;-57
2023/07/12 06:53:28;;;;;;;7.18;6.60;;;;;;;31.69;100.00;154021.78;5073669;28;20578;-58
2023/07/12 06:55:55;;;;;;;20.20;7.50;;;;;;;32.07;99.91;154118.00;5073554;28;20193;-56
2023/07/12 06:58:22;;;;;;;10.55;6.60;;;;;;;32.09;96.62;154123.16;5072365;28;20177;-57
2023/07/12 07:00:49;;;;;;;12.55;7.43;;;;;;;31.65;100.00;154010.22;5073745;28;20188;-58
2023/07/12 07:03:16;;;;;;;7.22;6.57;;;;;;;31.70;99.55;154023.03;5073404;28;20188;-58
2023/07/12 07:05:46;;;;;;;7.15;6.55;;;;;;;31.19;100.00;153894.72;5073157;28;20200;-58
2023/07/12 07:08:15;;;;;;;11.88;7.80;;;;;;;30.84;100.00;153804.94;5073582;28;20188;-57
2023/07/12 07:10:43;;;;;;;7.85;7.25;;;;;;;30.09;100.00;153613.88;5073066;28;20200;-60
2023/07/12 07:13:10;;;;;;;7.57;7.07;;;;;;;29.92;100.00;153571.59;5072661;28;20185;-58
2023/07/12 07:15:37;;;;;;;7.63;6.75;;;;;;;30.21;100.00;153644.66;5072938;28;20276;-57
2023/07/12 07:18:04;;;;;;;7.07;6.75;;;;;;;29.80;100.00;153540.78;5072935;28;20273;-59
2023/07/12 07:20:31;;;;;;;7.70;7.30;;;;;;;29.97;100.00;153583.13;5073202;28;20222;-58
2023/07/12 07:22:59;;;;;;;9.63;8.02;;;;;;;30.04;100.00;153602.38;5072196;28;20185;-59
2023/07/12 07:25:28;;;;;;;9.50;6.78;;;;;;;29.44;100.00;153451.16;5070198;28;20220;-61
2023/07/12 07:27:59;;;;;;;7.97;7.13;;;;;;;29.88;100.00;153561.34;5073055;28;20215;-61
2023/07/12 07:30:27;;;;;;;8.95;7.25;;;;;;;30.12;100.00;153621.59;5072189;28;20188;-59
2023/07/12 07:33:13;;;;;;;13.48;7.28;;;;;;;30.48;100.00;153713.91;5072515;28;20184;-58
2023/07/12 07:35:43;;;;;;;10.00;7.57;;;;;;;30.55;100.00;153731.88;5071315;28;20271;-58
2023/07/12 07:38:14;;;;;;;11.20;7.15;;;;;;;30.46;100.00;153708.81;5071394;28;20224;-59
2023/07/12 07:40:41;;;;;;;6.60;6.10;;;;;;;30.52;100.00;153724.16;5073075;28;20631;-59
2023/07/12 07:43:08;;;;;;;8.38;6.35;;;;;;;30.60;100.00;153743.38;5073036;28;20200;-60
2023/07/12 07:45:41;;;;;;;5.93;5.50;;;;;;;30.61;100.00;153747.25;5072526;28;20239;-59
2023/07/12 07:48:08;;;;;;;6.68;5.93;;;;;;;30.46;100.00;153707.50;5072617;28;20204;-59
2023/07/12 07:50:35;;;;;;;14.00;6.10;;;;;;;30.28;100.00;153663.88;5072688;28;20200;-59
2023/07/12 07:53:01;;;;;;;11.20;7.43;;;;;;;30.47;100.00;153710.09;5072588;28;20212;-59
2023/07/12 07:55:30;;;;;;;8.32;5.78;;;;;;;30.62;100.00;153748.53;5072441;28;20253;-59
2023/07/12 07:57:57;;;;;;;6.63;5.95;;;;;;;30.57;100.00;153737.00;5072000;28;20188;-60
2023/07/12 08:00:27;;;;;;;6.43;5.93;;;;;;;30.49;100.00;153715.19;5072169;28;20189;-59
2023/07/12 08:02:54;;;;;;;6.53;5.93;;;;;;;30.59;100.00;153740.84;5072273;28;20660;-59
2023/07/12 08:05:21;;;;;;;6.25;5.75;;;;;;;30.94;100.00;153830.56;5072131;28;20247;-59
2023/07/12 08:07:51;;;;;;;9.18;6.53;;;;;;;30.90;100.00;153819.03;5072639;28;20552;-60
2023/07/12 08:10:19;;;;;;;6.95;6.13;;;;;;;30.88;100.00;153815.19;5071894;28;20210;-60
2023/07/12 08:12:48;;;;;;;8.52;5.50;;;;;;;30.91;100.00;153821.59;5072210;28;20607;-58
2023/07/12 08:15:15;;;;;;;6.43;5.93;;;;;;;30.83;100.00;153802.38;5072228;28;20246;-61
2023/07/12 08:17:45;;;;;;;8.65;5.32;;;;;;;31.14;100.00;153880.66;5072032;28;20189;-60
2023/07/12 08:20:15;;;;;;;5.82;5.43;;;;;;;30.40;100.00;153694.66;5071975;28;20208;-58
2023/07/12 08:22:42;;;;;;;6.72;6.13;;;;;;;30.55;100.00;153731.88;5072429;28;20606;-60
2023/07/12 08:25:10;;;;;;;6.63;6.13;;;;;;;29.91;100.00;153569.06;5072600;28;20212;-60
2023/07/12 08:27:37;;;;;;;5.70;5.40;;;;;;;29.81;100.00;153543.38;5072568;28;20283;-60
2023/07/12 08:30:07;;;;;;;7.38;5.53;;;;;;;29.91;100.00;153569.06;5072042;28;20628;-60
2023/07/12 08:32:34;;;;;;;7.20;6.45;;;;;;;29.44;100.00;153451.16;5071381;28;20189;-59
2023/07/12 08:35:03;;;;;;;7.20;6.10;;;;;;;29.27;100.00;153407.53;5070882;28;20710;-59
2023/07/12 08:37:30;;;;;;;6.20;5.80;;;;;;;29.20;100.00;153389.59;5071828;28;20681;-59
2023/07/12 08:39:57;;;;;;;6.53;6.22;;;;;;;29.30;100.00;153415.25;5071440;28;20188;-59
2023/07/12 08:42:27;;;;;;;6.60;6.03;;;;;;;29.46;100.00;153454.97;5071925;28;20250;-60
2023/07/12 08:44:59;;;;;;;6.45;5.90;;;;;;;28.79;100.00;153284.56;5071150;28;20230;-59
2023/07/12 08:47:32;;;;;;;6.30;5.95;;;;;;;28.58;100.00;153233.31;5072046;28;20196;-59
2023/07/12 08:49:59;;;;;;;7.18;6.18;;;;;;;28.95;100.00;153325.53;5071264;28;20195;-59
2023/07/12 08:52:33;;;;;;;9.98;5.63;;;;;;;29.24;100.00;153398.59;5071636;28;20185;-58
2023/07/12 08:55:02;;;;;;;5.82;5.43;;;;;;;29.34;100.00;153424.22;5071755;28;20659;-59
2023/07/12 08:57:31;;;;;;;7.10;5.60;;;;;;;28.93;100.00;153320.44;5072325;28;20272;-59
2023/07/12 09:00:10;;;;;;;5.20;4.93;;;;;;;28.84;100.00;153297.38;5071306;28;20228;-58
2023/07/12 09:02:38;;;;;;;10.98;6.55;;;;;;;29.44;100.00;153451.16;5072036;28;20199;-61
2023/07/12 09:05:14;;;;;;;6.55;5.60;;;;;;;29.52;100.00;153469.06;5071750;28;20288;-60
2023/07/12 09:07:49;;;;;;;5.90;5.43;;;;;;;29.24;100.00;153399.81;5070977;28;20188;-60
2023/07/12 09:10:29;;;;;;;5.68;5.38;;;;;;;29.15;100.00;153376.81;5070919;28;20196;-61
2023/07/12 09:12:58;;;;;;;6.35;5.93;;;;;;;29.21;100.00;153390.88;5070266;28;20216;-61
2023/07/12 09:15:33;;;;;;;6.47;5.80;;;;;;;28.61;100.00;153239.69;5071520;28;20242;-61
2023/07/12 09:18:06;;;;;;;6.35;5.45;;;;;;;28.49;100.00;153208.97;5071350;28;20553;-60
2023/07/12 09:20:35;;;;;;;6.15;5.68;;;;;;;28.25;100.00;153148.84;5071288;28;20650;-60
2023/07/12 09:23:02;;;;;;;6.15;5.53;;;;;;;28.34;100.00;153171.88;5071646;28;20268;-63
2023/07/12 09:25:37;;;;;;;5.70;5.20;;;;;;;28.22;100.00;153141.13;5069737;28;20586;-61
2023/07/12 09:28:04;;;;;;;5.55;5.15;;;;;;;28.27;100.00;153153.94;5071355;28;20634;-62
2023/07/12 09:30:33;;;;;;;5.38;5.07;;;;;;;28.27;100.00;153153.94;5070949;28;20314;-61
2023/07/12 09:33:05;;;;;;;5.85;5.30;;;;;;;28.30;100.00;153161.66;5071259;28;20609;-62
2023/07/12 09:35:39;;;;;;;6.53;5.93;;;;;;;28.44;100.00;153197.47;5070203;28;20184;-61
2023/07/12 09:38:12;;;;;;;6.93;5.78;;;;;;;28.54;100.00;153223.09;5071798;28;20665;-61
2023/07/12 09:40:40;;;;;;;6.18;5.88;;;;;;;28.97;100.00;153331.97;5071325;28;20532;-59
2023/07/12 09:43:18;;;;;;;5.85;5.55;;;;;;;29.25;100.00;153402.41;5070695;28;20200;-60
2023/07/12 09:46:00;;;;;;;13.18;5.65;;;;;;;29.44;100.00;153451.16;5071218;28;20578;-60
2023/07/12 09:48:41;;;;;;;5.50;5.10;;;;;;;29.84;100.00;153551.03;5074711;28;20185;-60
2023/07/12 09:51:27;;;;;;;6.63;5.47;;;;;;;30.13;100.00;153625.41;5074782;28;20185;-60
2023/07/12 09:54:01;;;;;;;6.03;5.50;;;;;;;29.98;100.00;153587.00;5074529;28;20193;-60
2023/07/12 09:56:40;;;;;;;8.10;5.65;;;;;;;30.33;100.00;153675.44;5074702;28;20181;-60
2023/07/12 09:59:14;;;;;;;5.78;5.38;;;;;;;29.76;100.00;153530.56;5074499;28;20271;-61
2023/07/12 10:01:47;;;;;;;5.80;5.30;;;;;;;29.91;100.00;153569.06;5074500;28;20191;-61
2023/07/12 10:04:38;;;;;;;5.40;5.10;;;;;;;29.18;100.00;153384.47;5074624;28;20223;-60
2023/07/12 10:07:10;;;;;;;6.88;5.30;;;;;;;28.74;100.00;153271.75;5074368;28;20555;-60
2023/07/12 10:09:39;;;;;;;5.43;5.13;;;;;;;28.11;100.00;153112.97;5074019;28;20288;-60
2023/07/12 10:12:18;;;;;;;5.28;4.75;;;;;;;27.98;100.00;153079.66;5074200;28;20187;-61
2023/07/12 10:14:48;;;;;;;5.43;5.13;;;;;;;28.17;100.00;153128.34;5074135;28;20206;-62
2023/07/12 10:17:31;;;;;;;5.13;4.88;;;;;;;28.05;100.00;153097.59;5074073;28;20185;-59
2023/07/12 10:20:02;;;;;;;6.22;5.80;;;;;;;28.09;100.00;153109.13;5074028;28;20195;-59
2023/07/12 10:22:34;;;;;;;6.18;5.60;;;;;;;28.27;100.00;153153.94;5074489;28;20180;-62
2023/07/12 10:25:11;;;;;;;4.80;4.60;;;;;;;28.36;100.00;153175.69;5074159;28;20191;-61
2023/07/12 10:27:46;;;;;;;5.30;4.78;;;;;;;28.41;100.00;153189.78;5074361;28;20613;-60
2023/07/12 10:30:17;;;;;;;4.93;4.63;;;;;;;28.40;100.00;153187.22;5074846;28;20184;-63
2023/07/12 10:32:49;;;;;;;5.10;4.68;;;;;;;28.54;100.00;153221.78;5074521;28;20211;-61
2023/07/12 10:35:23;;;;;;;5.18;4.65;;;;;;;28.74;100.00;153273.03;5073835;28;20185;-60
2023/07/12 10:37:57;;;;;;;4.85;4.57;;;;;;;28.84;100.00;153298.69;5073934;28;20668;-61
2023/07/12 10:40:27;;;;;;;4.72;4.45;;;;;;;29.09;100.00;153361.41;5074103;28;20220;-59
2023/07/12 10:42:57;;;;;;;4.55;4.25;;;;;;;28.32;100.00;153166.75;5072679;28;20570;-61
2023/07/12 10:45:27;;;;;;;5.10;4.60;;;;;;;28.47;100.00;153203.88;5073490;28;20251;-58
2023/07/12 10:47:56;;;;;;;6.88;4.88;;;;;;;28.35;100.00;153173.13;5073805;28;20590;-60
2023/07/12 10:50:34;;;;;;;5.10;4.72;;;;;;;28.70;100.00;153261.53;5072654;28;20201;-60
2023/07/12 10:53:05;;;;;;;4.50;4.25;;;;;;;28.59;100.00;153235.91;5073543;28;20180;-61
2023/07/12 10:55:47;;;;;;;4.72;4.43;;;;;;;28.18;100.00;153130.88;5073480;28;20235;-60
2023/07/12 10:58:27;;;;;;;9.35;4.85;;;;;;;27.93;100.00;153066.84;5072138;28;20188;-61
2023/07/12 11:00:56;;;;;;;6.35;4.50;;;;;;;28.03;100.00;153093.75;5073232;28;20191;-60
2023/07/12 11:03:39;;;;;;;4.75;4.53;;;;;;;27.74;100.00;153018.22;5073147;28;20188;-60
2023/07/12 11:06:22;;;;;;;5.03;4.60;;;;;;;27.77;100.00;153027.19;5072701;28;20565;-61
2023/07/12 11:09:02;;;;;;;5.05;4.72;;;;;;;27.71;100.00;153011.81;5073256;28;20181;-60
2023/07/12 11:11:45;;;;;;;5.20;4.80;;;;;;;27.67;100.00;153002.84;5073134;28;20204;-61
2023/07/12 11:14:24;;;;;;;4.68;4.38;;;;;;;27.68;100.00;153005.44;5072288;28;20634;-60
2023/07/12 11:17:04;;;;;;;4.65;4.22;;;;;;;27.50;100.00;152958.06;5073044;28;20216;-60
2023/07/12 11:19:36;;;;;;;4.53;4.32;;;;;;;27.55;100.00;152970.88;5073254;28;20181;-65